sensor_id;sensor_type;location;lat;lon;timestamp;pressure;altitude;pressure_sealevel;temperature;humidity
49827;BME280;35715;51.570;6.036;2023-02-28T00:01:24;102972.91;;;1.10;72.41
49827;BME280;35715;51.570;6.036;2023-02-28T00:03:49;102969.59;;;1.17;71.97
49827;BME280;35715;51.570;6.036;2023-02-28T00:08:43;102963.31;;;1.20;71.44
49827;BME280;35715;51.570;6.036;2023-02-28T00:11:09;102964.38;;;1.28;71.11
49827;BME280;35715;51.570;6.036;2023-02-28T00:13:36;102966.50;;;1.25;71.30
49827;BME280;35715;51.570;6.036;2023-02-28T00:16:06;102969.03;;;1.25;70.72
49827;BME280;35715;51.570;6.036;2023-02-28T00:18:31;102964.00;;;1.19;70.73
49827;BME280;35715;51.570;6.036;2023-02-28T00:20:57;102966.13;;;1.16;71.03
49827;BME280;35715;51.570;6.036;2023-02-28T00:23:23;102964.94;;;1.20;71.28
49827;BME280;35715;51.570;6.036;2023-02-28T00:25:52;102967.28;;;1.18;70.88
49827;BME280;35715;51.570;6.036;2023-02-28T00:28:17;102969.59;;;1.17;71.18
49827;BME280;35715;51.570;6.036;2023-02-28T00:30:43;102965.91;;;1.15;71.07
49827;BME280;35715;51.570;6.036;2023-02-28T00:33:08;102971.28;;;1.11;71.40
49827;BME280;35715;51.570;6.036;2023-02-28T00:35:35;102963.44;;;1.09;70.99
49827;BME280;35715;51.570;6.036;2023-02-28T00:38:00;102969.66;;;1.11;70.88
49827;BME280;35715;51.570;6.036;2023-02-28T00:40:25;102969.41;;;1.15;70.57
49827;BME280;35715;51.570;6.036;2023-02-28T00:42:50;102977.56;;;1.07;71.12
49827;BME280;35715;51.570;6.036;2023-02-28T00:45:16;102982.34;;;0.93;72.04
49827;BME280;35715;51.570;6.036;2023-02-28T00:47:42;102980.50;;;0.92;72.24
49827;BME280;35715;51.570;6.036;2023-02-28T00:50:07;102980.97;;;0.89;72.94
49827;BME280;35715;51.570;6.036;2023-02-28T00:52:33;102980.13;;;0.83;73.49
49827;BME280;35715;51.570;6.036;2023-02-28T00:54:59;102987.53;;;0.81;73.74
49827;BME280;35715;51.570;6.036;2023-02-28T00:57:27;102976.28;;;0.74;74.53
49827;BME280;35715;51.570;6.036;2023-02-28T00:59:52;102979.03;;;0.75;74.12
49827;BME280;35715;51.570;6.036;2023-02-28T01:02:19;102977.91;;;0.73;74.60
49827;BME280;35715;51.570;6.036;2023-02-28T01:04:45;102976.06;;;0.72;75.28
49827;BME280;35715;51.570;6.036;2023-02-28T01:07:11;102980.94;;;0.70;75.07
49827;BME280;35715;51.570;6.036;2023-02-28T01:09:37;102983.69;;;0.72;75.03
49827;BME280;35715;51.570;6.036;2023-02-28T01:12:02;102982.56;;;0.70;75.19
49827;BME280;35715;51.570;6.036;2023-02-28T01:14:27;102991.41;;;0.61;75.90
49827;BME280;35715;51.570;6.036;2023-02-28T01:16:53;102989.19;;;0.51;75.92
49827;BME280;35715;51.570;6.036;2023-02-28T01:19:19;102988.44;;;0.58;75.63
49827;BME280;35715;51.570;6.036;2023-02-28T01:21:44;102994.06;;;0.44;76.37
49827;BME280;35715;51.570;6.036;2023-02-28T01:24:09;102988.13;;;0.38;76.73
49827;BME280;35715;51.570;6.036;2023-02-28T01:26:35;102990.41;;;0.42;76.48
49827;BME280;35715;51.570;6.036;2023-02-28T01:29:00;102991.53;;;0.44;76.40
49827;BME280;35715;51.570;6.036;2023-02-28T01:31:25;102984.03;;;0.32;76.60
49827;BME280;35715;51.570;6.036;2023-02-28T01:33:50;102986.41;;;0.49;75.59
49827;BME280;35715;51.570;6.036;2023-02-28T01:36:17;102988.28;;;0.50;75.62
49827;BME280;35715;51.570;6.036;2023-02-28T01:38:42;102988.28;;;0.50;76.02
49827;BME280;35715;51.570;6.036;2023-02-28T01:41:08;102980.88;;;0.52;75.37
49827;BME280;35715;51.570;6.036;2023-02-28T01:46:09;102978.13;;;0.50;75.28
49827;BME280;35715;51.570;6.036;2023-02-28T01:48:36;102967.94;;;0.50;75.36
49827;BME280;35715;51.570;6.036;2023-02-28T01:51:05;102973.91;;;0.57;75.00
49827;BME280;35715;51.570;6.036;2023-02-28T01:53:34;102962.75;;;0.62;74.40
49827;BME280;35715;51.570;6.036;2023-02-28T01:56:03;102972.56;;;0.53;75.06
49827;BME280;35715;51.570;6.036;2023-02-28T01:58:31;102966.22;;;0.38;76.02
49827;BME280;35715;51.570;6.036;2023-02-28T02:00:56;102971.16;;;0.25;77.66
49827;BME280;35715;51.570;6.036;2023-02-28T02:03:22;102969.81;;;0.22;78.30
49827;BME280;35715;51.570;6.036;2023-02-28T02:05:48;102967.50;;;0.17;78.95
49827;BME280;35715;51.570;6.036;2023-02-28T02:08:15;102967.75;;;0.13;79.99
49827;BME280;35715;51.570;6.036;2023-02-28T02:13:13;102961.31;;;0.15;79.97
49827;BME280;35715;51.570;6.036;2023-02-28T02:15:52;102951.16;;;0.15;79.46
49827;BME280;35715;51.570;6.036;2023-02-28T02:23:25;102953.97;;;0.06;80.40
49827;BME280;35715;51.570;6.036;2023-02-28T02:26:10;102959.28;;;0.07;80.18
49827;BME280;35715;51.570;6.036;2023-02-28T02:28:46;102953.03;;;0.11;79.88
49827;BME280;35715;51.570;6.036;2023-02-28T02:42:01;102956.06;;;0.03;79.99
49827;BME280;35715;51.570;6.036;2023-02-28T02:44:48;102962.09;;;0.03;81.15
49827;BME280;35715;51.570;6.036;2023-02-28T02:47:21;102955.84;;;0.01;81.12
49827;BME280;35715;51.570;6.036;2023-02-28T02:49:50;102954.50;;;-0.03;80.62
49827;BME280;35715;51.570;6.036;2023-02-28T02:52:17;102956.09;;;-0.03;81.42
49827;BME280;35715;51.570;6.036;2023-02-28T02:54:44;102955.44;;;-0.08;81.29
49827;BME280;35715;51.570;6.036;2023-02-28T02:59:39;102959.59;;;-0.03;80.32
49827;BME280;35715;51.570;6.036;2023-02-28T03:02:06;102962.84;;;-0.09;80.85
49827;BME280;35715;51.570;6.036;2023-02-28T03:04:35;102964.00;;;-0.07;81.25
49827;BME280;35715;51.570;6.036;2023-02-28T03:09:39;102949.47;;;-0.08;80.86
49827;BME280;35715;51.570;6.036;2023-02-28T03:12:04;102954.72;;;-0.01;80.14
49827;BME280;35715;51.570;6.036;2023-02-28T03:14:40;102958.19;;;-0.06;79.86
49827;BME280;35715;51.570;6.036;2023-02-28T03:17:18;102961.91;;;-0.04;79.50
49827;BME280;35715;51.570;6.036;2023-02-28T03:19:48;102950.38;;;-0.08;80.17
49827;BME280;35715;51.570;6.036;2023-02-28T03:25:08;102954.97;;;-0.05;80.28
49827;BME280;35715;51.570;6.036;2023-02-28T03:27:48;102951.53;;;-0.06;81.12
49827;BME280;35715;51.570;6.036;2023-02-28T03:30:27;102956.56;;;0.00;81.34
49827;BME280;35715;51.570;6.036;2023-02-28T03:32:56;102960.00;;;0.06;82.14
49827;BME280;35715;51.570;6.036;2023-02-28T03:35:23;102954.63;;;0.10;81.38
49827;BME280;35715;51.570;6.036;2023-02-28T03:37:50;102958.03;;;0.16;80.27
49827;BME280;35715;51.570;6.036;2023-02-28T03:40:19;102949.72;;;0.23;80.66
49827;BME280;35715;51.570;6.036;2023-02-28T03:42:45;102952.69;;;0.26;79.43
49827;BME280;35715;51.570;6.036;2023-02-28T03:45:17;102954.78;;;0.23;80.58
49827;BME280;35715;51.570;6.036;2023-02-28T03:50:26;102947.56;;;0.32;79.44
49827;BME280;35715;51.570;6.036;2023-02-28T03:53:03;102955.47;;;0.22;79.33
49827;BME280;35715;51.570;6.036;2023-02-28T03:55:40;102950.63;;;0.24;79.57
49827;BME280;35715;51.570;6.036;2023-02-28T04:00:54;102945.72;;;0.31;80.12
49827;BME280;35715;51.570;6.036;2023-02-28T04:03:20;102945.91;;;0.38;79.57
49827;BME280;35715;51.570;6.036;2023-02-28T04:05:53;102934.50;;;0.47;78.94
49827;BME280;35715;51.570;6.036;2023-02-28T04:08:19;102936.50;;;0.56;78.41
49827;BME280;35715;51.570;6.036;2023-02-28T04:10:45;102933.00;;;0.61;77.83
49827;BME280;35715;51.570;6.036;2023-02-28T04:13:13;102930.88;;;0.64;77.26
49827;BME280;35715;51.570;6.036;2023-02-28T04:15:40;102934.97;;;0.69;77.71
49827;BME280;35715;51.570;6.036;2023-02-28T04:18:06;102935.75;;;0.62;77.66
49827;BME280;35715;51.570;6.036;2023-02-28T04:20:31;102937.88;;;0.59;78.08
49827;BME280;35715;51.570;6.036;2023-02-28T04:22:56;102934.38;;;0.59;77.27
49827;BME280;35715;51.570;6.036;2023-02-28T04:25:21;102938.56;;;0.58;77.28
49827;BME280;35715;51.570;6.036;2023-02-28T04:27:47;102934.94;;;0.50;77.28
49827;BME280;35715;51.570;6.036;2023-02-28T04:30:12;102939.38;;;0.46;77.51
49827;BME280;35715;51.570;6.036;2023-02-28T04:32:37;102941.94;;;0.40;77.80
49827;BME280;35715;51.570;6.036;2023-02-28T04:35:02;102948.38;;;0.44;77.77
49827;BME280;35715;51.570;6.036;2023-02-28T04:40:02;102946.22;;;0.52;76.68
49827;BME280;35715;51.570;6.036;2023-02-28T04:42:27;102938.59;;;0.52;76.62
49827;BME280;35715;51.570;6.036;2023-02-28T04:45:00;102955.03;;;0.49;76.92
49827;BME280;35715;51.570;6.036;2023-02-28T04:47:31;102952.56;;;0.38;76.82
49827;BME280;35715;51.570;6.036;2023-02-28T04:49:56;102955.19;;;0.32;77.84
49827;BME280;35715;51.570;6.036;2023-02-28T04:52:22;102957.06;;;0.27;78.28
49827;BME280;35715;51.570;6.036;2023-02-28T04:54:47;102961.03;;;0.20;78.01
49827;BME280;35715;51.570;6.036;2023-02-28T04:57:14;102962.19;;;0.22;78.64
49827;BME280;35715;51.570;6.036;2023-02-28T04:59:39;102962.88;;;0.21;79.36
49827;BME280;35715;51.570;6.036;2023-02-28T05:02:05;102955.47;;;0.22;78.99
49827;BME280;35715;51.570;6.036;2023-02-28T05:04:32;102956.44;;;0.17;79.53
49827;BME280;35715;51.570;6.036;2023-02-28T05:09:28;102967.50;;;0.17;78.88
49827;BME280;35715;51.570;6.036;2023-02-28T05:11:53;102976.69;;;0.23;78.37
49827;BME280;35715;51.570;6.036;2023-02-28T05:14:18;102974.59;;;0.26;78.23
49827;BME280;35715;51.570;6.036;2023-02-28T05:16:46;102973.00;;;0.26;77.80
49827;BME280;35715;51.570;6.036;2023-02-28T05:19:11;102978.28;;;0.28;77.46
49827;BME280;35715;51.570;6.036;2023-02-28T05:21:37;102976.63;;;0.34;77.24
49827;BME280;35715;51.570;6.036;2023-02-28T05:24:04;102972.97;;;0.32;77.17
49827;BME280;35715;51.570;6.036;2023-02-28T05:26:33;102973.09;;;0.39;76.93
49827;BME280;35715;51.570;6.036;2023-02-28T05:28:58;102978.69;;;0.37;76.70
49827;BME280;35715;51.570;6.036;2023-02-28T05:31:24;102978.94;;;0.32;76.44
49827;BME280;35715;51.570;6.036;2023-02-28T05:33:49;102977.13;;;0.26;76.52
49827;BME280;35715;51.570;6.036;2023-02-28T05:36:18;102977.84;;;0.25;76.83
49827;BME280;35715;51.570;6.036;2023-02-28T05:38:45;102983.19;;;0.21;77.50
49827;BME280;35715;51.570;6.036;2023-02-28T05:41:10;102986.84;;;0.23;77.54
49827;BME280;35715;51.570;6.036;2023-02-28T05:43:36;102986.41;;;0.20;77.27
49827;BME280;35715;51.570;6.036;2023-02-28T05:46:12;102984.16;;;0.15;76.87
49827;BME280;35715;51.570;6.036;2023-02-28T05:48:38;102987.34;;;0.20;76.88
49827;BME280;35715;51.570;6.036;2023-02-28T05:51:04;102991.44;;;0.25;75.99
49827;BME280;35715;51.570;6.036;2023-02-28T05:53:30;102995.63;;;0.25;75.50
49827;BME280;35715;51.570;6.036;2023-02-28T05:55:55;103000.06;;;0.14;76.75
49827;BME280;35715;51.570;6.036;2023-02-28T05:58:20;102999.16;;;0.14;77.91
49827;BME280;35715;51.570;6.036;2023-02-28T06:00:46;102998.06;;;0.06;76.67
49827;BME280;35715;51.570;6.036;2023-02-28T06:03:11;102997.88;;;-0.01;77.01
49827;BME280;35715;51.570;6.036;2023-02-28T06:05:45;103006.16;;;-0.02;77.57
49827;BME280;35715;51.570;6.036;2023-02-28T06:08:10;103000.22;;;-0.08;77.79
49827;BME280;35715;51.570;6.036;2023-02-28T06:10:36;102997.91;;;-0.12;77.88
49827;BME280;35715;51.570;6.036;2023-02-28T06:13:01;102996.31;;;-0.12;77.79
49827;BME280;35715;51.570;6.036;2023-02-28T06:15:28;102998.41;;;-0.15;77.12
49827;BME280;35715;51.570;6.036;2023-02-28T06:17:54;103005.38;;;-0.20;77.04
49827;BME280;35715;51.570;6.036;2023-02-28T06:20:21;103001.66;;;-0.22;77.02
49827;BME280;35715;51.570;6.036;2023-02-28T06:22:46;103002.38;;;-0.23;77.33
49827;BME280;35715;51.570;6.036;2023-02-28T06:25:11;103002.16;;;-0.24;77.14
49827;BME280;35715;51.570;6.036;2023-02-28T06:27:37;103010.22;;;-0.27;75.80
49827;BME280;35715;51.570;6.036;2023-02-28T06:30:03;103008.38;;;-0.28;76.04
49827;BME280;35715;51.570;6.036;2023-02-28T06:32:28;103011.59;;;-0.29;75.75
49827;BME280;35715;51.570;6.036;2023-02-28T06:34:53;103010.69;;;-0.29;76.28
49827;BME280;35715;51.570;6.036;2023-02-28T06:37:20;103012.31;;;-0.30;75.92
49827;BME280;35715;51.570;6.036;2023-02-28T06:39:45;103015.75;;;-0.29;75.72
49827;BME280;35715;51.570;6.036;2023-02-28T06:42:10;103019.22;;;-0.29;75.93
49827;BME280;35715;51.570;6.036;2023-02-28T06:44:36;103022.91;;;-0.27;74.98
49827;BME280;35715;51.570;6.036;2023-02-28T06:47:03;103019.19;;;-0.23;75.31
49827;BME280;35715;51.570;6.036;2023-02-28T06:49:29;103025.00;;;-0.24;75.21
49827;BME280;35715;51.570;6.036;2023-02-28T06:51:54;103030.75;;;-0.25;75.15
49827;BME280;35715;51.570;6.036;2023-02-28T06:54:20;103029.09;;;-0.13;74.96
49827;BME280;35715;51.570;6.036;2023-02-28T06:56:47;103026.53;;;-0.13;74.03
49827;BME280;35715;51.570;6.036;2023-02-28T06:59:12;103030.66;;;-0.08;73.49
49827;BME280;35715;51.570;6.036;2023-02-28T07:01:38;103025.78;;;-0.01;73.10
49827;BME280;35715;51.570;6.036;2023-02-28T07:04:04;103029.44;;;0.07;73.65
49827;BME280;35715;51.570;6.036;2023-02-28T07:06:30;103031.00;;;0.12;72.74
49827;BME280;35715;51.570;6.036;2023-02-28T07:08:55;103040.44;;;0.19;73.20
49827;BME280;35715;51.570;6.036;2023-02-28T07:11:22;103033.25;;;0.22;72.05
49827;BME280;35715;51.570;6.036;2023-02-28T07:13:47;103039.47;;;0.24;72.16
49827;BME280;35715;51.570;6.036;2023-02-28T07:16:16;103037.16;;;0.25;71.01
49827;BME280;35715;51.570;6.036;2023-02-28T07:18:41;103044.06;;;0.32;71.20
49827;BME280;35715;51.570;6.036;2023-02-28T07:21:08;103039.34;;;0.41;70.87
49827;BME280;35715;51.570;6.036;2023-02-28T07:23:35;103041.63;;;0.45;70.80
49827;BME280;35715;51.570;6.036;2023-02-28T07:26:04;103047.34;;;0.55;71.65
49827;BME280;35715;51.570;6.036;2023-02-28T07:28:29;103046.13;;;0.64;70.18
49827;BME280;35715;51.570;6.036;2023-02-28T07:30:54;103042.38;;;0.68;68.72
49827;BME280;35715;51.570;6.036;2023-02-28T07:33:20;103052.75;;;0.69;69.02
49827;BME280;35715;51.570;6.036;2023-02-28T07:35:56;103049.97;;;0.74;68.72
49827;BME280;35715;51.570;6.036;2023-02-28T07:38:24;103052.19;;;0.83;67.56
49827;BME280;35715;51.570;6.036;2023-02-28T07:40:49;103066.22;;;0.93;66.30
49827;BME280;35715;51.570;6.036;2023-02-28T07:43:15;103057.00;;;1.12;66.86
49827;BME280;35715;51.570;6.036;2023-02-28T07:45:41;103053.56;;;1.11;66.36
49827;BME280;35715;51.570;6.036;2023-02-28T07:48:06;103055.97;;;1.22;67.19
49827;BME280;35715;51.570;6.036;2023-02-28T07:50:31;103057.34;;;1.26;66.63
49827;BME280;35715;51.570;6.036;2023-02-28T07:52:58;103053.19;;;1.45;65.96
49827;BME280;35715;51.570;6.036;2023-02-28T07:55:23;103062.88;;;1.48;65.51
49827;BME280;35715;51.570;6.036;2023-02-28T07:57:48;103057.56;;;1.46;64.78
49827;BME280;35715;51.570;6.036;2023-02-28T08:00:13;103056.66;;;1.46;65.93
49827;BME280;35715;51.570;6.036;2023-02-28T08:02:39;103067.75;;;1.46;65.40
49827;BME280;35715;51.570;6.036;2023-02-28T08:05:05;103067.97;;;1.48;64.01
49827;BME280;35715;51.570;6.036;2023-02-28T08:07:31;103068.66;;;1.47;64.41
49827;BME280;35715;51.570;6.036;2023-02-28T08:09:58;103066.53;;;1.50;65.02
49827;BME280;35715;51.570;6.036;2023-02-28T08:12:23;103067.91;;;1.53;65.15
49827;BME280;35715;51.570;6.036;2023-02-28T08:14:48;103066.22;;;1.59;63.40
49827;BME280;35715;51.570;6.036;2023-02-28T08:17:15;103067.78;;;1.65;63.70
49827;BME280;35715;51.570;6.036;2023-02-28T08:19:40;103066.44;;;1.80;62.97
49827;BME280;35715;51.570;6.036;2023-02-28T08:22:05;103058.47;;;1.89;60.71
49827;BME280;35715;51.570;6.036;2023-02-28T08:24:31;103072.66;;;2.31;61.48
49827;BME280;35715;51.570;6.036;2023-02-28T08:27:00;103062.09;;;2.86;59.37
49827;BME280;35715;51.570;6.036;2023-02-28T08:29:25;103050.75;;;3.61;53.78
49827;BME280;35715;51.570;6.036;2023-02-28T08:31:50;103052.44;;;4.33;51.79
49827;BME280;35715;51.570;6.036;2023-02-28T08:34:16;103060.16;;;5.49;51.60
49827;BME280;35715;51.570;6.036;2023-02-28T08:36:46;103043.31;;;5.44;47.64
49827;BME280;35715;51.570;6.036;2023-02-28T08:39:12;103042.34;;;5.85;47.13
49827;BME280;35715;51.570;6.036;2023-02-28T08:41:37;103043.41;;;6.36;45.91
49827;BME280;35715;51.570;6.036;2023-02-28T08:44:02;103039.75;;;6.34;46.54
49827;BME280;35715;51.570;6.036;2023-02-28T08:46:30;103042.81;;;6.25;46.62
49827;BME280;35715;51.570;6.036;2023-02-28T08:48:56;103034.75;;;6.72;44.77
49827;BME280;35715;51.570;6.036;2023-02-28T08:51:24;103046.66;;;6.07;43.54
49827;BME280;35715;51.570;6.036;2023-02-28T08:53:53;103040.69;;;5.79;43.30
49827;BME280;35715;51.570;6.036;2023-02-28T08:58:50;103042.28;;;6.20;43.89
49827;BME280;35715;51.570;6.036;2023-02-28T09:03:41;103038.25;;;6.58;42.72
49827;BME280;35715;51.570;6.036;2023-02-28T09:06:09;103049.59;;;6.89;42.61
49827;BME280;35715;51.570;6.036;2023-02-28T09:08:35;103040.88;;;7.32;42.80
49827;BME280;35715;51.570;6.036;2023-02-28T09:11:00;103042.63;;;6.88;44.10
49827;BME280;35715;51.570;6.036;2023-02-28T09:13:26;103045.16;;;7.09;42.25
49827;BME280;35715;51.570;6.036;2023-02-28T09:16:03;103031.53;;;7.25;41.28
49827;BME280;35715;51.570;6.036;2023-02-28T09:18:29;103039.72;;;6.42;41.20
49827;BME280;35715;51.570;6.036;2023-02-28T09:20:55;103029.19;;;7.19;42.87
49827;BME280;35715;51.570;6.036;2023-02-28T09:23:21;103036.59;;;7.46;40.30
49827;BME280;35715;51.570;6.036;2023-02-28T09:26:00;103031.25;;;7.82;39.25
49827;BME280;35715;51.570;6.036;2023-02-28T09:28:26;103040.84;;;7.39;38.72
49827;BME280;35715;51.570;6.036;2023-02-28T09:30:52;103033.69;;;7.43;38.42
49827;BME280;35715;51.570;6.036;2023-02-28T09:33:18;103032.91;;;7.00;39.16
49827;BME280;35715;51.570;6.036;2023-02-28T09:35:57;103029.19;;;7.57;38.29
49827;BME280;35715;51.570;6.036;2023-02-28T09:38:23;103031.84;;;8.10;36.24
49827;BME280;35715;51.570;6.036;2023-02-28T09:40:53;103033.09;;;7.46;36.85
49827;BME280;35715;51.570;6.036;2023-02-28T09:43:20;103037.69;;;6.25;38.46
49827;BME280;35715;51.570;6.036;2023-02-28T09:48:31;103029.13;;;7.26;37.37
49827;BME280;35715;51.570;6.036;2023-02-28T09:53:54;103032.75;;;6.48;38.54
49827;BME280;35715;51.570;6.036;2023-02-28T10:01:30;103031.75;;;7.12;36.97
49827;BME280;35715;51.570;6.036;2023-02-28T10:09:17;103023.16;;;7.12;36.71
49827;BME280;35715;51.570;6.036;2023-02-28T10:11:44;103015.94;;;7.23;39.63
49827;BME280;35715;51.570;6.036;2023-02-28T10:14:13;103016.78;;;7.45;37.67
49827;BME280;35715;51.570;6.036;2023-02-28T10:16:50;103017.66;;;8.14;39.53
49827;BME280;35715;51.570;6.036;2023-02-28T10:24:45;103016.56;;;8.97;35.98
49827;BME280;35715;51.570;6.036;2023-02-28T10:29:44;103018.34;;;9.37;34.16
49827;BME280;35715;51.570;6.036;2023-02-28T10:32:11;103016.31;;;9.51;33.51
49827;BME280;35715;51.570;6.036;2023-02-28T10:34:39;103008.03;;;10.03;33.60
49827;BME280;35715;51.570;6.036;2023-02-28T10:37:04;102999.75;;;9.65;32.79
49827;BME280;35715;51.570;6.036;2023-02-28T10:42:04;103000.16;;;9.85;32.94
49827;BME280;35715;51.570;6.036;2023-02-28T10:44:29;102996.63;;;10.59;32.65
49827;BME280;35715;51.570;6.036;2023-02-28T10:47:02;103000.28;;;10.03;32.51
49827;BME280;35715;51.570;6.036;2023-02-28T10:49:28;103005.97;;;9.91;32.96
49827;BME280;35715;51.570;6.036;2023-02-28T10:51:58;102987.19;;;9.68;32.16
49827;BME280;35715;51.570;6.036;2023-02-28T10:54:31;103000.63;;;9.40;34.56
49827;BME280;35715;51.570;6.036;2023-02-28T11:00:07;103003.59;;;10.02;32.14
49827;BME280;35715;51.570;6.036;2023-02-28T11:02:38;102989.28;;;9.88;31.96
49827;BME280;35715;51.570;6.036;2023-02-28T11:07:53;102992.88;;;10.81;32.18
49827;BME280;35715;51.570;6.036;2023-02-28T11:10:19;102989.28;;;11.06;31.13
49827;BME280;35715;51.570;6.036;2023-02-28T11:12:46;102990.50;;;11.09;30.62
49827;BME280;35715;51.570;6.036;2023-02-28T11:17:52;102981.06;;;11.01;31.08
49827;BME280;35715;51.570;6.036;2023-02-28T11:20:21;102979.19;;;10.32;32.19
49827;BME280;35715;51.570;6.036;2023-02-28T11:22:46;102977.84;;;10.77;31.75
49827;BME280;35715;51.570;6.036;2023-02-28T11:25:26;102979.50;;;10.77;31.33
49827;BME280;35715;51.570;6.036;2023-02-28T11:27:55;102982.84;;;10.76;30.64
49827;BME280;35715;51.570;6.036;2023-02-28T11:30:37;102971.78;;;11.03;30.59
49827;BME280;35715;51.570;6.036;2023-02-28T11:38:14;102968.28;;;11.55;30.49
49827;BME280;35715;51.570;6.036;2023-02-28T11:40:54;102969.38;;;11.13;29.85
49827;BME280;35715;51.570;6.036;2023-02-28T11:43:46;102964.63;;;10.83;30.11
49827;BME280;35715;51.570;6.036;2023-02-28T11:46:24;102971.28;;;10.30;30.40
49827;BME280;35715;51.570;6.036;2023-02-28T11:49:02;102962.75;;;10.56;31.39
49827;BME280;35715;51.570;6.036;2023-02-28T11:54:34;102965.56;;;10.08;33.53
49827;BME280;35715;51.570;6.036;2023-02-28T12:02:05;102955.34;;;10.76;31.15
49827;BME280;35715;51.570;6.036;2023-02-28T12:10:13;102954.00;;;11.59;31.87
49827;BME280;35715;51.570;6.036;2023-02-28T12:15:49;102942.56;;;11.74;29.13
49827;BME280;35715;51.570;6.036;2023-02-28T12:18:36;102930.19;;;11.89;30.69
49827;BME280;35715;51.570;6.036;2023-02-28T12:21:11;102944.00;;;11.35;30.97
49827;BME280;35715;51.570;6.036;2023-02-28T12:28:51;102934.75;;;10.43;32.28
49827;BME280;35715;51.570;6.036;2023-02-28T12:31:20;102932.59;;;10.30;31.68
49827;BME280;35715;51.570;6.036;2023-02-28T12:33:48;102924.63;;;10.53;31.40
49827;BME280;35715;51.570;6.036;2023-02-28T12:36:17;102918.81;;;10.38;31.95
49827;BME280;35715;51.570;6.036;2023-02-28T12:41:12;102891.69;;;10.08;32.21
49827;BME280;35715;51.570;6.036;2023-02-28T12:43:40;102914.13;;;9.27;34.00
49827;BME280;35715;51.570;6.036;2023-02-28T12:46:19;102898.59;;;9.67;34.06
49827;BME280;35715;51.570;6.036;2023-02-28T12:48:48;102912.53;;;9.61;32.84
49827;BME280;35715;51.570;6.036;2023-02-28T12:51:15;102909.66;;;9.17;32.66
49827;BME280;35715;51.570;6.036;2023-02-28T12:56:40;102898.94;;;9.21;33.71
49827;BME280;35715;51.570;6.036;2023-02-28T12:59:10;102901.59;;;9.30;33.76
49827;BME280;35715;51.570;6.036;2023-02-28T13:09:54;102894.09;;;8.51;34.26
49827;BME280;35715;51.570;6.036;2023-02-28T13:12:19;102883.63;;;8.50;35.17
49827;BME280;35715;51.570;6.036;2023-02-28T13:14:45;102892.41;;;8.52;36.38
49827;BME280;35715;51.570;6.036;2023-02-28T13:17:12;102871.66;;;7.95;38.87
49827;BME280;35715;51.570;6.036;2023-02-28T13:19:46;102852.34;;;7.76;37.28
49827;BME280;35715;51.570;6.036;2023-02-28T13:22:35;102885.09;;;7.39;37.73
49827;BME280;35715;51.570;6.036;2023-02-28T13:25:04;102871.16;;;7.37;38.84
49827;BME280;35715;51.570;6.036;2023-02-28T13:27:52;102866.50;;;7.19;38.49
49827;BME280;35715;51.570;6.036;2023-02-28T13:34:03;102877.97;;;6.99;37.96
49827;BME280;35715;51.570;6.036;2023-02-28T13:38:34;102876.06;;;6.75;39.63
49827;BME280;35715;51.570;6.036;2023-02-28T13:44:03;102870.63;;;7.02;41.13
49827;BME280;35715;51.570;6.036;2023-02-28T13:46:31;102871.47;;;7.17;39.20
49827;BME280;35715;51.570;6.036;2023-02-28T13:49:17;102870.06;;;7.05;39.19
49827;BME280;35715;51.570;6.036;2023-02-28T13:51:49;102869.47;;;7.15;40.15
49827;BME280;35715;51.570;6.036;2023-02-28T13:54:28;102872.22;;;7.16;38.65
49827;BME280;35715;51.570;6.036;2023-02-28T14:02:01;102865.88;;;6.53;39.55
49827;BME280;35715;51.570;6.036;2023-02-28T14:06:56;102859.75;;;6.82;40.02
49827;BME280;35715;51.570;6.036;2023-02-28T14:09:25;102870.28;;;6.54;40.61
49827;BME280;35715;51.570;6.036;2023-02-28T14:11:52;102861.47;;;6.52;40.46
49827;BME280;35715;51.570;6.036;2023-02-28T14:17:13;102854.63;;;6.74;39.08
49827;BME280;35715;51.570;6.036;2023-02-28T14:19:39;102860.28;;;6.86;41.98
49827;BME280;35715;51.570;6.036;2023-02-28T14:22:09;102851.50;;;6.77;39.90
49827;BME280;35715;51.570;6.036;2023-02-28T14:37:33;102839.34;;;6.46;40.59
49827;BME280;35715;51.570;6.036;2023-02-28T14:40:01;102842.88;;;6.25;41.88
49827;BME280;35715;51.570;6.036;2023-02-28T14:42:33;102845.81;;;6.28;40.60
49827;BME280;35715;51.570;6.036;2023-02-28T14:44:58;102850.41;;;6.16;41.36
49827;BME280;35715;51.570;6.036;2023-02-28T14:49:52;102842.69;;;6.37;41.70
49827;BME280;35715;51.570;6.036;2023-02-28T14:54:43;102834.03;;;6.51;42.61
49827;BME280;35715;51.570;6.036;2023-02-28T14:57:26;102835.66;;;6.51;41.92
49827;BME280;35715;51.570;6.036;2023-02-28T15:02:24;102839.78;;;6.13;41.07
49827;BME280;35715;51.570;6.036;2023-02-28T15:04:57;102823.31;;;6.18;41.53
49827;BME280;35715;51.570;6.036;2023-02-28T15:07:34;102832.28;;;6.14;41.12
49827;BME280;35715;51.570;6.036;2023-02-28T15:10:08;102832.28;;;6.14;42.58
49827;BME280;35715;51.570;6.036;2023-02-28T15:12:34;102830.13;;;6.10;41.90
49827;BME280;35715;51.570;6.036;2023-02-28T15:14:59;102832.50;;;6.09;43.32
49827;BME280;35715;51.570;6.036;2023-02-28T15:19:55;102826.06;;;6.12;44.37
49827;BME280;35715;51.570;6.036;2023-02-28T15:22:26;102827.38;;;6.09;42.39
49827;BME280;35715;51.570;6.036;2023-02-28T15:24:54;102825.63;;;6.38;42.18
49827;BME280;35715;51.570;6.036;2023-02-28T15:27:22;102830.78;;;6.24;43.39
49827;BME280;35715;51.570;6.036;2023-02-28T15:29:48;102822.19;;;6.30;44.17
49827;BME280;35715;51.570;6.036;2023-02-28T15:32:29;102837.38;;;6.29;44.41
49827;BME280;35715;51.570;6.036;2023-02-28T15:34:55;102840.31;;;6.25;44.29
49827;BME280;35715;51.570;6.036;2023-02-28T15:39:55;102832.09;;;6.13;42.98
49827;BME280;35715;51.570;6.036;2023-02-28T15:42:21;102844.56;;;6.10;43.93
49827;BME280;35715;51.570;6.036;2023-02-28T15:44:47;102834.69;;;5.98;43.18
49827;BME280;35715;51.570;6.036;2023-02-28T15:47:19;102822.97;;;5.79;43.74
49827;BME280;35715;51.570;6.036;2023-02-28T15:49:47;102829.72;;;5.78;42.10